sensor_id;sensor_type;location;lat;lon;timestamp;P1;durP1;ratioP1;P2;durP2;ratioP2
53927;SDS011;39837;47.630;18.822;2022-07-29T00:00:19;1.92;;;1.77;;
53927;SDS011;39837;47.630;18.822;2022-07-29T00:03:04;2.30;;;2.20;;
53927;SDS011;39837;47.630;18.822;2022-07-29T00:05:47;1.88;;;1.60;;
53927;SDS011;39837;47.630;18.822;2022-07-29T00:08:31;2.03;;;1.92;;
53927;SDS011;39837;47.630;18.822;2022-07-29T00:11:15;2.00;;;1.90;;
53927;SDS011;39837;47.630;18.822;2022-07-29T00:13:59;1.90;;;1.80;;
53927;SDS011;39837;47.630;18.822;2022-07-29T00:16:43;2.40;;;2.20;;
53927;SDS011;39837;47.630;18.822;2022-07-29T00:19:27;2.53;;;2.15;;
53927;SDS011;39837;47.630;18.822;2022-07-29T00:22:11;2.08;;;1.98;;
53927;SDS011;39837;47.630;18.822;2022-07-29T00:24:55;8.98;;;2.15;;
53927;SDS011;39837;47.630;18.822;2022-07-29T00:27:39;2.28;;;2.08;;
53927;SDS011;39837;47.630;18.822;2022-07-29T00:30:23;2.40;;;2.20;;
53927;SDS011;39837;47.630;18.822;2022-07-29T00:33:07;1.85;;;1.85;;
53927;SDS011;39837;47.630;18.822;2022-07-29T00:35:51;7.97;;;2.28;;
53927;SDS011;39837;47.630;18.822;2022-07-29T00:38:35;2.50;;;2.30;;
53927;SDS011;39837;47.630;18.822;2022-07-29T00:41:19;1.90;;;1.80;;
53927;SDS011;39837;47.630;18.822;2022-07-29T00:44:03;2.35;;;2.15;;
53927;SDS011;39837;47.630;18.822;2022-07-29T00:46:47;9.82;;;2.00;;
53927;SDS011;39837;47.630;18.822;2022-07-29T00:49:32;2.05;;;1.95;;
53927;SDS011;39837;47.630;18.822;2022-07-29T00:52:16;2.08;;;1.98;;
53927;SDS011;39837;47.630;18.822;2022-07-29T00:55:00;2.10;;;2.00;;
53927;SDS011;39837;47.630;18.822;2022-07-29T00:57:46;7.07;;;2.10;;
53927;SDS011;39837;47.630;18.822;2022-07-29T01:00:30;3.35;;;2.15;;
53927;SDS011;39837;47.630;18.822;2022-07-29T01:03:15;1.70;;;1.60;;
53927;SDS011;39837;47.630;18.822;2022-07-29T01:05:59;2.13;;;1.83;;
53927;SDS011;39837;47.630;18.822;2022-07-29T01:08:43;1.92;;;1.83;;
53927;SDS011;39837;47.630;18.822;2022-07-29T01:11:31;2.17;;;2.08;;
53927;SDS011;39837;47.630;18.822;2022-07-29T01:14:15;1.67;;;1.58;;
53927;SDS011;39837;47.630;18.822;2022-07-29T01:25:57;2.47;;;2.28;;
53927;SDS011;39837;47.630;18.822;2022-07-29T01:28:51;2.47;;;2.28;;
53927;SDS011;39837;47.630;18.822;2022-07-29T01:32:04;2.95;;;2.15;;
53927;SDS011;39837;47.630;18.822;2022-07-29T01:34:54;1.95;;;1.85;;
53927;SDS011;39837;47.630;18.822;2022-07-29T01:40:38;2.28;;;1.90;;
53927;SDS011;39837;47.630;18.822;2022-07-29T01:43:33;2.63;;;1.92;;
53927;SDS011;39837;47.630;18.822;2022-07-29T01:46:31;2.13;;;2.03;;
53927;SDS011;39837;47.630;18.822;2022-07-29T01:49:20;1.90;;;1.80;;
53927;SDS011;39837;47.630;18.822;2022-07-29T01:52:07;2.40;;;2.20;;
53927;SDS011;39837;47.630;18.822;2022-07-29T01:54:58;2.30;;;2.10;;
53927;SDS011;39837;47.630;18.822;2022-07-29T01:57:45;2.55;;;2.22;;
53927;SDS011;39837;47.630;18.822;2022-07-29T02:00:31;21.77;;;2.88;;
53927;SDS011;39837;47.630;18.822;2022-07-29T02:03:15;2.03;;;1.88;;
53927;SDS011;39837;47.630;18.822;2022-07-29T02:06:01;2.00;;;1.85;;
53927;SDS011;39837;47.630;18.822;2022-07-29T02:11:31;1.80;;;1.70;;
53927;SDS011;39837;47.630;18.822;2022-07-29T02:14:21;2.22;;;2.00;;
53927;SDS011;39837;47.630;18.822;2022-07-29T02:17:06;2.53;;;2.33;;
53927;SDS011;39837;47.630;18.822;2022-07-29T02:19:51;2.30;;;2.17;;
53927;SDS011;39837;47.630;18.822;2022-07-29T02:22:37;2.47;;;2.28;;
53927;SDS011;39837;47.630;18.822;2022-07-29T02:25:22;2.30;;;2.17;;
53927;SDS011;39837;47.630;18.822;2022-07-29T02:28:07;3.70;;;2.25;;
53927;SDS011;39837;47.630;18.822;2022-07-29T02:30:52;2.17;;;2.08;;
53927;SDS011;39837;47.630;18.822;2022-07-29T02:33:37;2.47;;;2.10;;
53927;SDS011;39837;47.630;18.822;2022-07-29T02:36:22;2.22;;;2.03;;
53927;SDS011;39837;47.630;18.822;2022-07-29T02:39:07;3.22;;;2.70;;
53927;SDS011;39837;47.630;18.822;2022-07-29T02:41:54;2.63;;;1.90;;
53927;SDS011;39837;47.630;18.822;2022-07-29T02:44:41;3.25;;;2.10;;
53927;SDS011;39837;47.630;18.822;2022-07-29T02:47:45;6.28;;;2.10;;
53927;SDS011;39837;47.630;18.822;2022-07-29T02:50:33;3.17;;;2.20;;
53927;SDS011;39837;47.630;18.822;2022-07-29T02:53:21;12.63;;;2.20;;
53927;SDS011;39837;47.630;18.822;2022-07-29T02:56:13;2.50;;;2.30;;
53927;SDS011;39837;47.630;18.822;2022-07-29T02:58:58;2.15;;;2.05;;
53927;SDS011;39837;47.630;18.822;2022-07-29T03:01:46;2.85;;;2.65;;
53927;SDS011;39837;47.630;18.822;2022-07-29T03:04:31;3.33;;;3.03;;
53927;SDS011;39837;47.630;18.822;2022-07-29T03:07:16;2.83;;;2.50;;
53927;SDS011;39837;47.630;18.822;2022-07-29T03:10:02;3.25;;;2.22;;
53927;SDS011;39837;47.630;18.822;2022-07-29T03:12:47;2.58;;;2.38;;
53927;SDS011;39837;47.630;18.822;2022-07-29T03:15:32;2.45;;;2.25;;
53927;SDS011;39837;47.630;18.822;2022-07-29T03:18:16;2.47;;;2.22;;
53927;SDS011;39837;47.630;18.822;2022-07-29T03:21:01;2.63;;;2.42;;
53927;SDS011;39837;47.630;18.822;2022-07-29T03:23:45;2.28;;;2.17;;
53927;SDS011;39837;47.630;18.822;2022-07-29T03:26:29;12.25;;;2.47;;
53927;SDS011;39837;47.630;18.822;2022-07-29T03:29:13;2.17;;;2.08;;
53927;SDS011;39837;47.630;18.822;2022-07-29T03:31:57;2.42;;;2.28;;
53927;SDS011;39837;47.630;18.822;2022-07-29T03:34:42;2.92;;;2.63;;
53927;SDS011;39837;47.630;18.822;2022-07-29T03:37:26;7.90;;;2.80;;
53927;SDS011;39837;47.630;18.822;2022-07-29T03:40:11;3.00;;;2.20;;
53927;SDS011;39837;47.630;18.822;2022-07-29T03:43:01;2.58;;;2.47;;
53927;SDS011;39837;47.630;18.822;2022-07-29T03:45:47;2.10;;;2.08;;
53927;SDS011;39837;47.630;18.822;2022-07-29T03:48:32;3.13;;;2.50;;
53927;SDS011;39837;47.630;18.822;2022-07-29T03:51:19;2.63;;;2.42;;
53927;SDS011;39837;47.630;18.822;2022-07-29T03:54:04;2.40;;;2.30;;
53927;SDS011;39837;47.630;18.822;2022-07-29T03:56:49;2.33;;;2.20;;
53927;SDS011;39837;47.630;18.822;2022-07-29T03:59:33;5.97;;;3.00;;
53927;SDS011;39837;47.630;18.822;2022-07-29T04:02:18;2.40;;;2.30;;
53927;SDS011;39837;47.630;18.822;2022-07-29T04:05:03;2.78;;;2.58;;
53927;SDS011;39837;47.630;18.822;2022-07-29T04:07:47;2.60;;;2.40;;
53927;SDS011;39837;47.630;18.822;2022-07-29T04:10:32;2.80;;;2.53;;
53927;SDS011;39837;47.630;18.822;2022-07-29T04:13:15;2.60;;;2.50;;
53927;SDS011;39837;47.630;18.822;2022-07-29T04:15:59;2.33;;;2.22;;
53927;SDS011;39837;47.630;18.822;2022-07-29T04:18:43;3.05;;;2.85;;
53927;SDS011;39837;47.630;18.822;2022-07-29T04:21:27;2.47;;;2.20;;
53927;SDS011;39837;47.630;18.822;2022-07-29T04:24:11;2.40;;;2.28;;
53927;SDS011;39837;47.630;18.822;2022-07-29T04:26:56;3.78;;;3.00;;
53927;SDS011;39837;47.630;18.822;2022-07-29T04:29:40;2.30;;;2.20;;
53927;SDS011;39837;47.630;18.822;2022-07-29T04:32:24;3.38;;;2.22;;
53927;SDS011;39837;47.630;18.822;2022-07-29T04:35:09;3.33;;;2.33;;
53927;SDS011;39837;47.630;18.822;2022-07-29T04:37:53;2.63;;;2.47;;
53927;SDS011;39837;47.630;18.822;2022-07-29T04:40:37;2.38;;;2.17;;
53927;SDS011;39837;47.630;18.822;2022-07-29T04:43:21;2.20;;;2.10;;
53927;SDS011;39837;47.630;18.822;2022-07-29T04:46:05;6.40;;;2.38;;
53927;SDS011;39837;47.630;18.822;2022-07-29T04:48:50;2.90;;;2.67;;
53927;SDS011;39837;47.630;18.822;2022-07-29T04:51:34;6.57;;;2.88;;
53927;SDS011;39837;47.630;18.822;2022-07-29T04:54:18;4.30;;;2.60;;
53927;SDS011;39837;47.630;18.822;2022-07-29T04:57:03;2.60;;;2.50;;
53927;SDS011;39837;47.630;18.822;2022-07-29T04:59:47;2.08;;;1.98;;
53927;SDS011;39837;47.630;18.822;2022-07-29T05:02:32;5.45;;;2.58;;
53927;SDS011;39837;47.630;18.822;2022-07-29T05:05:15;3.33;;;2.90;;
53927;SDS011;39837;47.630;18.822;2022-07-29T05:07:59;3.38;;;2.80;;
53927;SDS011;39837;47.630;18.822;2022-07-29T05:10:43;6.50;;;3.30;;
53927;SDS011;39837;47.630;18.822;2022-07-29T05:13:28;9.85;;;3.17;;
53927;SDS011;39837;47.630;18.822;2022-07-29T05:16:13;5.03;;;3.10;;
53927;SDS011;39837;47.630;18.822;2022-07-29T05:18:57;3.17;;;2.25;;
53927;SDS011;39837;47.630;18.822;2022-07-29T05:21:44;2.38;;;2.28;;
53927;SDS011;39837;47.630;18.822;2022-07-29T05:24:28;4.32;;;2.22;;
53927;SDS011;39837;47.630;18.822;2022-07-29T05:27:12;8.68;;;2.35;;
53927;SDS011;39837;47.630;18.822;2022-07-29T05:29:56;3.45;;;2.20;;
53927;SDS011;39837;47.630;18.822;2022-07-29T05:32:40;2.00;;;1.90;;
53927;SDS011;39837;47.630;18.822;2022-07-29T05:35:24;3.75;;;2.33;;
53927;SDS011;39837;47.630;18.822;2022-07-29T05:38:08;2.65;;;2.45;;
53927;SDS011;39837;47.630;18.822;2022-07-29T05:40:52;2.50;;;2.30;;
53927;SDS011;39837;47.630;18.822;2022-07-29T05:43:36;2.20;;;2.00;;
53927;SDS011;39837;47.630;18.822;2022-07-29T05:46:21;2.58;;;2.38;;
53927;SDS011;39837;47.630;18.822;2022-07-29T05:49:05;2.45;;;2.30;;
53927;SDS011;39837;47.630;18.822;2022-07-29T05:51:50;2.38;;;2.28;;
53927;SDS011;39837;47.630;18.822;2022-07-29T05:54:34;4.90;;;1.67;;
53927;SDS011;39837;47.630;18.822;2022-07-29T05:57:20;2.15;;;2.00;;
53927;SDS011;39837;47.630;18.822;2022-07-29T06:00:05;2.50;;;2.30;;
53927;SDS011;39837;47.630;18.822;2022-07-29T06:02:49;2.45;;;2.35;;
53927;SDS011;39837;47.630;18.822;2022-07-29T06:05:33;4.82;;;2.30;;
53927;SDS011;39837;47.630;18.822;2022-07-29T06:08:17;2.75;;;2.55;;
53927;SDS011;39837;47.630;18.822;2022-07-29T06:11:01;2.60;;;2.40;;
53927;SDS011;39837;47.630;18.822;2022-07-29T06:16:30;6.15;;;2.40;;
53927;SDS011;39837;47.630;18.822;2022-07-29T06:19:14;2.47;;;2.38;;
53927;SDS011;39837;47.630;18.822;2022-07-29T06:21:59;2.45;;;2.25;;
53927;SDS011;39837;47.630;18.822;2022-07-29T06:24:44;1.83;;;1.73;;
53927;SDS011;39837;47.630;18.822;2022-07-29T06:27:28;2.60;;;2.00;;
53927;SDS011;39837;47.630;18.822;2022-07-29T06:30:13;2.85;;;2.40;;
53927;SDS011;39837;47.630;18.822;2022-07-29T06:32:57;2.03;;;1.93;;
53927;SDS011;39837;47.630;18.822;2022-07-29T06:35:41;2.65;;;2.28;;
53927;SDS011;39837;47.630;18.822;2022-07-29T06:38:26;6.82;;;2.03;;
53927;SDS011;39837;47.630;18.822;2022-07-29T06:41:11;5.45;;;4.22;;
53927;SDS011;39837;47.630;18.822;2022-07-29T06:43:55;2.97;;;2.13;;
53927;SDS011;39837;47.630;18.822;2022-07-29T06:46:40;1.80;;;1.70;;
53927;SDS011;39837;47.630;18.822;2022-07-29T06:49:24;1.73;;;1.63;;
53927;SDS011;39837;47.630;18.822;2022-07-29T06:52:09;1.88;;;1.77;;
53927;SDS011;39837;47.630;18.822;2022-07-29T06:54:53;1.90;;;1.80;;
53927;SDS011;39837;47.630;18.822;2022-07-29T06:57:38;3.55;;;1.70;;
53927;SDS011;39837;47.630;18.822;2022-07-29T07:00:22;9.27;;;2.13;;
53927;SDS011;39837;47.630;18.822;2022-07-29T07:03:06;1.92;;;1.50;;
53927;SDS011;39837;47.630;18.822;2022-07-29T07:05:51;6.90;;;1.77;;
53927;SDS011;39837;47.630;18.822;2022-07-29T07:08:36;4.80;;;2.22;;
53927;SDS011;39837;47.630;18.822;2022-07-29T07:11:20;2.80;;;1.60;;
53927;SDS011;39837;47.630;18.822;2022-07-29T07:14:04;2.28;;;2.05;;
53927;SDS011;39837;47.630;18.822;2022-07-29T07:16:48;1.75;;;1.65;;
53927;SDS011;39837;47.630;18.822;2022-07-29T07:22:16;1.73;;;1.63;;
53927;SDS011;39837;47.630;18.822;2022-07-29T07:25:00;4.47;;;2.75;;
53927;SDS011;39837;47.630;18.822;2022-07-29T07:27:44;7.30;;;2.15;;
53927;SDS011;39837;47.630;18.822;2022-07-29T07:30:29;2.50;;;1.70;;
53927;SDS011;39837;47.630;18.822;2022-07-29T07:33:13;2.53;;;2.00;;
53927;SDS011;39837;47.630;18.822;2022-07-29T07:35:57;1.70;;;1.63;;
53927;SDS011;39837;47.630;18.822;2022-07-29T07:41:25;3.10;;;1.50;;
53927;SDS011;39837;47.630;18.822;2022-07-29T07:46:53;3.17;;;1.73;;
53927;SDS011;39837;47.630;18.822;2022-07-29T07:49:37;1.50;;;1.50;;
53927;SDS011;39837;47.630;18.822;2022-07-29T07:52:21;3.45;;;1.98;;
53927;SDS011;39837;47.630;18.822;2022-07-29T07:57:49;3.50;;;1.63;;
53927;SDS011;39837;47.630;18.822;2022-07-29T08:00:33;2.60;;;2.05;;
53927;SDS011;39837;47.630;18.822;2022-07-29T08:03:18;2.13;;;1.60;;
53927;SDS011;39837;47.630;18.822;2022-07-29T08:08:46;1.65;;;1.55;;
53927;SDS011;39837;47.630;18.822;2022-07-29T08:14:14;1.77;;;1.53;;
53927;SDS011;39837;47.630;18.822;2022-07-29T08:16:58;3.20;;;1.75;;
53927;SDS011;39837;47.630;18.822;2022-07-29T08:22:26;1.98;;;1.80;;
53927;SDS011;39837;47.630;18.822;2022-07-29T08:25:10;1.90;;;1.80;;
53927;SDS011;39837;47.630;18.822;2022-07-29T08:30:38;2.25;;;2.03;;
53927;SDS011;39837;47.630;18.822;2022-07-29T08:36:06;1.75;;;1.10;;
53927;SDS011;39837;47.630;18.822;2022-07-29T08:38:50;1.50;;;1.40;;
53927;SDS011;39837;47.630;18.822;2022-07-29T08:41:35;1.63;;;1.58;;
53927;SDS011;39837;47.630;18.822;2022-07-29T08:44:19;3.33;;;1.63;;
53927;SDS011;39837;47.630;18.822;2022-07-29T08:47:05;6.18;;;1.60;;
53927;SDS011;39837;47.630;18.822;2022-07-29T08:49:49;5.07;;;1.63;;
53927;SDS011;39837;47.630;18.822;2022-07-29T08:52:35;2.38;;;1.88;;
53927;SDS011;39837;47.630;18.822;2022-07-29T08:55:21;1.60;;;1.42;;
53927;SDS011;39837;47.630;18.822;2022-07-29T08:58:06;3.55;;;1.40;;
53927;SDS011;39837;47.630;18.822;2022-07-29T09:00:52;2.35;;;1.50;;
53927;SDS011;39837;47.630;18.822;2022-07-29T09:03:38;2.45;;;1.30;;
53927;SDS011;39837;47.630;18.822;2022-07-29T09:06:23;5.28;;;1.17;;
53927;SDS011;39837;47.630;18.822;2022-07-29T09:09:12;1.00;;;1.00;;
53927;SDS011;39837;47.630;18.822;2022-07-29T09:11:58;6.10;;;1.65;;
53927;SDS011;39837;47.630;18.822;2022-07-29T09:14:43;1.52;;;1.33;;
53927;SDS011;39837;47.630;18.822;2022-07-29T09:18:00;1.45;;;1.35;;
53927;SDS011;39837;47.630;18.822;2022-07-29T09:20:39;9.07;;;1.52;;
53927;SDS011;39837;47.630;18.822;2022-07-29T09:23:59;1.30;;;1.20;;
53927;SDS011;39837;47.630;18.822;2022-07-29T09:26:45;1.30;;;1.30;;
53927;SDS011;39837;47.630;18.822;2022-07-29T09:29:30;11.25;;;1.08;;
53927;SDS011;39837;47.630;18.822;2022-07-29T09:32:15;1.58;;;1.30;;
53927;SDS011;39837;47.630;18.822;2022-07-29T09:35:15;1.30;;;1.30;;
53927;SDS011;39837;47.630;18.822;2022-07-29T09:38:10;1.45;;;1.35;;
53927;SDS011;39837;47.630;18.822;2022-07-29T09:40:55;5.28;;;1.45;;
53927;SDS011;39837;47.630;18.822;2022-07-29T09:43:40;1.77;;;1.10;;
53927;SDS011;39837;47.630;18.822;2022-07-29T09:46:37;3.30;;;1.15;;
53927;SDS011;39837;47.630;18.822;2022-07-29T09:49:21;16.88;;;1.70;;
53927;SDS011;39837;47.630;18.822;2022-07-29T09:54:50;1.30;;;1.20;;
53927;SDS011;39837;47.630;18.822;2022-07-29T09:57:34;2.65;;;1.00;;
53927;SDS011;39837;47.630;18.822;2022-07-29T10:00:19;5.35;;;0.93;;
53927;SDS011;39837;47.630;18.822;2022-07-29T10:03:05;1.63;;;1.25;;
53927;SDS011;39837;47.630;18.822;2022-07-29T10:06:05;2.10;;;2.00;;
53927;SDS011;39837;47.630;18.822;2022-07-29T10:08:49;7.57;;;1.40;;
53927;SDS011;39837;47.630;18.822;2022-07-29T10:11:33;2.05;;;0.85;;
53927;SDS011;39837;47.630;18.822;2022-07-29T10:14:17;0.77;;;0.77;;
53927;SDS011;39837;47.630;18.822;2022-07-29T10:17:02;3.58;;;1.77;;
53927;SDS011;39837;47.630;18.822;2022-07-29T10:19:47;2.08;;;1.30;;
53927;SDS011;39837;47.630;18.822;2022-07-29T10:22:32;1.00;;;0.98;;
53927;SDS011;39837;47.630;18.822;2022-07-29T10:25:17;0.90;;;0.90;;
53927;SDS011;39837;47.630;18.822;2022-07-29T10:28:02;7.60;;;1.30;;
53927;SDS011;39837;47.630;18.822;2022-07-29T10:30:47;7.28;;;1.38;;
53927;SDS011;39837;47.630;18.822;2022-07-29T10:33:40;3.92;;;1.77;;
53927;SDS011;39837;47.630;18.822;2022-07-29T10:42:39;1.45;;;1.40;;
53927;SDS011;39837;47.630;18.822;2022-07-29T10:45:23;1.58;;;1.20;;
53927;SDS011;39837;47.630;18.822;2022-07-29T10:48:07;2.63;;;1.50;;
53927;SDS011;39837;47.630;18.822;2022-07-29T10:51:10;1.42;;;1.42;;
53927;SDS011;39837;47.630;18.822;2022-07-29T10:53:54;5.55;;;1.90;;
53927;SDS011;39837;47.630;18.822;2022-07-29T10:56:38;4.53;;;1.43;;
53927;SDS011;39837;47.630;18.822;2022-07-29T10:59:24;1.63;;;1.30;;
53927;SDS011;39837;47.630;18.822;2022-07-29T11:05:19;4.13;;;1.98;;
53927;SDS011;39837;47.630;18.822;2022-07-29T11:14:03;1.65;;;1.55;;
53927;SDS011;39837;47.630;18.822;2022-07-29T11:16:57;1.92;;;1.70;;
53927;SDS011;39837;47.630;18.822;2022-07-29T11:19:44;3.22;;;1.65;;
53927;SDS011;39837;47.630;18.822;2022-07-29T11:22:34;3.22;;;2.15;;
53927;SDS011;39837;47.630;18.822;2022-07-29T11:25:19;2.35;;;1.52;;
53927;SDS011;39837;47.630;18.822;2022-07-29T11:28:14;1.38;;;1.27;;
53927;SDS011;39837;47.630;18.822;2022-07-29T11:31:00;1.63;;;1.52;;
53927;SDS011;39837;47.630;18.822;2022-07-29T11:33:44;4.78;;;2.08;;
53927;SDS011;39837;47.630;18.822;2022-07-29T11:36:28;3.30;;;1.77;;
53927;SDS011;39837;47.630;18.822;2022-07-29T11:39:25;7.23;;;1.83;;
53927;SDS011;39837;47.630;18.822;2022-07-29T11:47:52;2.05;;;1.88;;
53927;SDS011;39837;47.630;18.822;2022-07-29T11:50:37;2.10;;;1.85;;
53927;SDS011;39837;47.630;18.822;2022-07-29T11:53:21;5.68;;;1.90;;
53927;SDS011;39837;47.630;18.822;2022-07-29T11:56:07;2.17;;;1.60;;
53927;SDS011;39837;47.630;18.822;2022-07-29T11:59:03;2.00;;;1.48;;
53927;SDS011;39837;47.630;18.822;2022-07-29T12:01:55;1.55;;;1.50;;
53927;SDS011;39837;47.630;18.822;2022-07-29T12:04:50;1.77;;;1.67;;
53927;SDS011;39837;47.630;18.822;2022-07-29T12:07:35;6.97;;;1.53;;
53927;SDS011;39837;47.630;18.822;2022-07-29T12:10:20;4.03;;;1.35;;
53927;SDS011;39837;47.630;18.822;2022-07-29T12:13:04;3.80;;;1.33;;
53927;SDS011;39837;47.630;18.822;2022-07-29T12:15:52;3.42;;;1.85;;
53927;SDS011;39837;47.630;18.822;2022-07-29T12:18:37;7.32;;;1.98;;
53927;SDS011;39837;47.630;18.822;2022-07-29T12:21:21;8.47;;;2.23;;
53927;SDS011;39837;47.630;18.822;2022-07-29T12:24:05;4.85;;;1.60;;
53927;SDS011;39837;47.630;18.822;2022-07-29T12:26:50;4.20;;;1.50;;
53927;SDS011;39837;47.630;18.822;2022-07-29T12:29:37;1.85;;;1.10;;
53927;SDS011;39837;47.630;18.822;2022-07-29T12:32:21;4.53;;;2.03;;
53927;SDS011;39837;47.630;18.822;2022-07-29T12:35:06;1.75;;;1.50;;
53927;SDS011;39837;47.630;18.822;2022-07-29T12:37:53;2.45;;;2.00;;
53927;SDS011;39837;47.630;18.822;2022-07-29T12:40:38;1.73;;;1.63;;
53927;SDS011;39837;47.630;18.822;2022-07-29T12:43:23;9.93;;;1.42;;
53927;SDS011;39837;47.630;18.822;2022-07-29T12:46:11;2.58;;;2.03;;
53927;SDS011;39837;47.630;18.822;2022-07-29T12:48:57;1.77;;;1.70;;
53927;SDS011;39837;47.630;18.822;2022-07-29T12:51:42;3.03;;;1.70;;
53927;SDS011;39837;47.630;18.822;2022-07-29T12:54:26;1.50;;;1.47;;
53927;SDS011;39837;47.630;18.822;2022-07-29T12:57:10;1.40;;;1.30;;
53927;SDS011;39837;47.630;18.822;2022-07-29T13:00:02;5.50;;;1.57;;
53927;SDS011;39837;47.630;18.822;2022-07-29T13:02:54;1.50;;;1.40;;
53927;SDS011;39837;47.630;18.822;2022-07-29T13:05:40;1.95;;;1.85;;
53927;SDS011;39837;47.630;18.822;2022-07-29T13:08:24;2.88;;;2.10;;
53927;SDS011;39837;47.630;18.822;2022-07-29T13:11:26;3.03;;;1.63;;
53927;SDS011;39837;47.630;18.822;2022-07-29T13:14:12;1.92;;;1.83;;
53927;SDS011;39837;47.630;18.822;2022-07-29T13:17:02;1.55;;;1.50;;
53927;SDS011;39837;47.630;18.822;2022-07-29T13:19:49;2.33;;;1.40;;
53927;SDS011;39837;47.630;18.822;2022-07-29T13:22:34;1.50;;;1.48;;
53927;SDS011;39837;47.630;18.822;2022-07-29T13:25:23;2.35;;;1.67;;
53927;SDS011;39837;47.630;18.822;2022-07-29T13:28:08;2.58;;;1.75;;
53927;SDS011;39837;47.630;18.822;2022-07-29T13:30:53;1.50;;;1.50;;
53927;SDS011;39837;47.630;18.822;2022-07-29T13:33:37;1.88;;;1.30;;
53927;SDS011;39837;47.630;18.822;2022-07-29T13:36:21;2.03;;;1.73;;
53927;SDS011;39837;47.630;18.822;2022-07-29T13:39:05;6.87;;;1.37;;
53927;SDS011;39837;47.630;18.822;2022-07-29T13:41:49;1.30;;;1.27;;
53927;SDS011;39837;47.630;18.822;2022-07-29T13:44:33;4.63;;;1.83;;
53927;SDS011;39837;47.630;18.822;2022-07-29T13:47:17;6.73;;;1.53;;
53927;SDS011;39837;47.630;18.822;2022-07-29T13:50:02;1.67;;;1.58;;
53927;SDS011;39837;47.630;18.822;2022-07-29T13:52:47;1.75;;;1.55;;
53927;SDS011;39837;47.630;18.822;2022-07-29T13:55:32;3.65;;;1.50;;
53927;SDS011;39837;47.630;18.822;2022-07-29T13:58:15;2.13;;;1.53;;
53927;SDS011;39837;47.630;18.822;2022-07-29T14:01:00;6.55;;;1.75;;
53927;SDS011;39837;47.630;18.822;2022-07-29T14:03:44;1.55;;;1.45;;
53927;SDS011;39837;47.630;18.822;2022-07-29T14:06:28;2.80;;;1.30;;
53927;SDS011;39837;47.630;18.822;2022-07-29T14:09:12;2.17;;;1.90;;
53927;SDS011;39837;47.630;18.822;2022-07-29T14:11:56;8.60;;;1.73;;
53927;SDS011;39837;47.630;18.822;2022-07-29T14:14:41;1.88;;;1.45;;
53927;SDS011;39837;47.630;18.822;2022-07-29T14:17:25;3.33;;;1.83;;
53927;SDS011;39837;47.630;18.822;2022-07-29T14:20:09;1.58;;;1.48;;
53927;SDS011;39837;47.630;18.822;2022-07-29T14:22:53;2.40;;;1.50;;
53927;SDS011;39837;47.630;18.822;2022-07-29T14:25:37;1.80;;;1.47;;
53927;SDS011;39837;47.630;18.822;2022-07-29T14:28:21;2.50;;;1.70;;
53927;SDS011;39837;47.630;18.822;2022-07-29T14:31:05;2.13;;;1.48;;
53927;SDS011;39837;47.630;18.822;2022-07-29T14:33:49;1.80;;;1.70;;
53927;SDS011;39837;47.630;18.822;2022-07-29T14:36:34;1.58;;;1.40;;
53927;SDS011;39837;47.630;18.822;2022-07-29T14:39:18;12.43;;;1.63;;
53927;SDS011;39837;47.630;18.822;2022-07-29T14:42:02;1.63;;;1.50;;
53927;SDS011;39837;47.630;18.822;2022-07-29T14:44:47;1.73;;;1.63;;
53927;SDS011;39837;47.630;18.822;2022-07-29T14:47:32;1.30;;;1.30;;
53927;SDS011;39837;47.630;18.822;2022-07-29T14:50:16;2.47;;;1.50;;
53927;SDS011;39837;47.630;18.822;2022-07-29T14:53:01;1.67;;;1.58;;
53927;SDS011;39837;47.630;18.822;2022-07-29T14:55:45;1.50;;;1.50;;
53927;SDS011;39837;47.630;18.822;2022-07-29T14:58:30;2.30;;;1.88;;
53927;SDS011;39837;47.630;18.822;2022-07-29T15:01:14;1.20;;;1.17;;
53927;SDS011;39837;47.630;18.822;2022-07-29T15:03:58;1.37;;;1.37;;
53927;SDS011;39837;47.630;18.822;2022-07-29T15:06:42;5.90;;;1.73;;
53927;SDS011;39837;47.630;18.822;2022-07-29T15:09:26;1.52;;;1.40;;
53927;SDS011;39837;47.630;18.822;2022-07-29T15:12:11;2.23;;;1.47;;
53927;SDS011;39837;47.630;18.822;2022-07-29T15:14:55;4.57;;;1.52;;
53927;SDS011;39837;47.630;18.822;2022-07-29T15:17:39;1.10;;;1.10;;
53927;SDS011;39837;47.630;18.822;2022-07-29T15:20:24;1.55;;;1.45;;
53927;SDS011;39837;47.630;18.822;2022-07-29T15:23:09;1.27;;;1.27;;
53927;SDS011;39837;47.630;18.822;2022-07-29T15:25:53;2.28;;;1.35;;
53927;SDS011;39837;47.630;18.822;2022-07-29T15:28:37;1.23;;;1.15;;
53927;SDS011;39837;47.630;18.822;2022-07-29T15:31:21;1.93;;;1.30;;
53927;SDS011;39837;47.630;18.822;2022-07-29T15:34:06;3.40;;;1.40;;
53927;SDS011;39837;47.630;18.822;2022-07-29T15:36:50;2.10;;;1.48;;
53927;SDS011;39837;47.630;18.822;2022-07-29T15:39:34;1.23;;;1.17;;
53927;SDS011;39837;47.630;18.822;2022-07-29T15:42:18;8.40;;;2.10;;
53927;SDS011;39837;47.630;18.822;2022-07-29T15:45:03;14.30;;;1.70;;
53927;SDS011;39837;47.630;18.822;2022-07-29T15:47:48;1.42;;;1.40;;
53927;SDS011;39837;47.630;18.822;2022-07-29T15:50:32;1.50;;;1.40;;
53927;SDS011;39837;47.630;18.822;2022-07-29T15:53:16;4.90;;;1.23;;
53927;SDS011;39837;47.630;18.822;2022-07-29T15:56:00;4.53;;;2.00;;
53927;SDS011;39837;47.630;18.822;2022-07-29T15:58:45;2.63;;;1.55;;
53927;SDS011;39837;47.630;18.822;2022-07-29T16:01:29;1.30;;;1.30;;
53927;SDS011;39837;47.630;18.822;2022-07-29T16:04:13;2.20;;;1.90;;
53927;SDS011;39837;47.630;18.822;2022-07-29T16:06:57;1.30;;;1.23;;
53927;SDS011;39837;47.630;18.822;2022-07-29T16:09:42;4.25;;;2.25;;
53927;SDS011;39837;47.630;18.822;2022-07-29T16:12:27;1.50;;;1.40;;
53927;SDS011;39837;47.630;18.822;2022-07-29T16:15:11;6.00;;;1.80;;
53927;SDS011;39837;47.630;18.822;2022-07-29T16:17:55;1.33;;;1.27;;
53927;SDS011;39837;47.630;18.822;2022-07-29T16:20:39;10.45;;;1.73;;
53927;SDS011;39837;47.630;18.822;2022-07-29T16:23:24;1.90;;;1.80;;
53927;SDS011;39837;47.630;18.822;2022-07-29T16:26:08;1.63;;;1.52;;
53927;SDS011;39837;47.630;18.822;2022-07-29T16:28:51;3.88;;;1.67;;
53927;SDS011;39837;47.630;18.822;2022-07-29T16:31:35;2.45;;;1.42;;
53927;SDS011;39837;47.630;18.822;2022-07-29T16:34:20;1.60;;;1.50;;
53927;SDS011;39837;47.630;18.822;2022-07-29T16:37:03;7.88;;;1.60;;
53927;SDS011;39837;47.630;18.822;2022-07-29T16:39:48;1.47;;;1.47;;
53927;SDS011;39837;47.630;18.822;2022-07-29T16:42:32;2.33;;;1.90;;
53927;SDS011;39837;47.630;18.822;2022-07-29T16:45:17;1.42;;;1.38;;
53927;SDS011;39837;47.630;18.822;2022-07-29T16:48:01;3.80;;;2.10;;
53927;SDS011;39837;47.630;18.822;2022-07-29T16:50:45;1.90;;;1.80;;
53927;SDS011;39837;47.630;18.822;2022-07-29T16:53:29;2.17;;;2.03;;
53927;SDS011;39837;47.630;18.822;2022-07-29T16:56:13;11.53;;;2.20;;
53927;SDS011;39837;47.630;18.822;2022-07-29T16:58:57;2.67;;;1.60;;
53927;SDS011;39837;47.630;18.822;2022-07-29T17:01:41;6.63;;;1.85;;
53927;SDS011;39837;47.630;18.822;2022-07-29T17:04:25;2.83;;;1.80;;
53927;SDS011;39837;47.630;18.822;2022-07-29T17:07:09;7.88;;;1.55;;
53927;SDS011;39837;47.630;18.822;2022-07-29T17:09:54;11.98;;;2.08;;
53927;SDS011;39837;47.630;18.822;2022-07-29T17:12:39;4.32;;;2.10;;
53927;SDS011;39837;47.630;18.822;2022-07-29T17:15:24;1.98;;;1.83;;
53927;SDS011;39837;47.630;18.822;2022-07-29T17:18:07;2.35;;;1.55;;
53927;SDS011;39837;47.630;18.822;2022-07-29T17:20:52;9.52;;;2.05;;
53927;SDS011;39837;47.630;18.822;2022-07-29T17:23:36;2.38;;;2.17;;
53927;SDS011;39837;47.630;18.822;2022-07-29T17:26:21;5.45;;;2.28;;